Zealand Delilah — PBZI — position and weather

sailwx.info

Track history (hours):
 
Tides and Currents Weather Stations Pressure Air Temp Water Temp Dewpoint Dewpoint Depression Visibility Wind Speed Wind Dir Waves Ship Positions

Zealand Delilah

Last reported at 2017-Nov-07 02:15 UTC. Time now 2017-Nov-19 14:18 UTC.
Position N 40°45' E 029°31'.
Warning: this ship's position is 12 days out of date.

Length 135 m; draft 5.6 m.

Type: Cargo ship. MMSI: 245935000.

Date/timePositionNaut miles runAvg speedWind from/ knotsBaromVisibWave heightAir tempDewpointWater temp
2017-Nov-07 02:15N 40°45' E 029°31'311.3
2017-Nov-07 02:00N 40°44' E 029°27'611.2
2017-Nov-07 01:27N 40°43' E 029°19'510.7
2017-Nov-07 01:00N 40°43' E 029°13'612.1
2017-Nov-07 00:30N 40°42' E 029°05'  
2017-Nov-04 12:08N 37°50' E 015°56'412.8
2017-Nov-04 11:49N 37°51' E 015°51'412.8
2017-Nov-04 11:29N 37°53' E 015°46'813.0
2017-Nov-04 10:53N 37°57' E 015°37'513.2
2017-Nov-04 10:29N 38°02' E 015°34'612.9
2017-Nov-04 10:00N 38°08' E 015°35'714.5
2017-Nov-04 09:29N 38°15' E 015°38'612.2
2017-Nov-04 09:00N 38°21' E 015°39'713.8
2017-Nov-04 08:30N 38°27' E 015°35'713.5
2017-Nov-04 08:00N 38°33' E 015°31'713.4
2017-Nov-04 07:27N 38°40' E 015°27'613.5
2017-Nov-04 07:00N 38°45' E 015°24'4013.7
2017-Nov-04 04:05N 39°19' E 014°57'213.5
2017-Nov-04 03:58N 39°20' E 014°55'8813.9
2017-Nov-03 21:40N 40°33' E 013°52'  
Track history (hours):
 
Tides and Currents Weather Stations Pressure Air Temp Water Temp Dewpoint Dewpoint Depression Visibility Wind Speed Wind Dir Waves Ship Positions

Zealand Delilah

Last reported at 2017-Nov-07 02:15 UTC. Time now 2017-Nov-19 14:18 UTC.
Position N 40°45' E 029°31'.
Warning: this ship's position is 12 days out of date.

Length 135 m; draft 5.6 m.

Type: Cargo ship. MMSI: 245935000.

Date/timePositionNaut miles runAvg speedWind from/ knotsBaromVisibWave heightAir tempDewpointWater temp
2017-Nov-07 02:15N 40°45' E 029°31'311.3
2017-Nov-07 02:00N 40°44' E 029°27'611.2
2017-Nov-07 01:27N 40°43' E 029°19'510.7
2017-Nov-07 01:00N 40°43' E 029°13'612.1
2017-Nov-07 00:30N 40°42' E 029°05'  
2017-Nov-04 12:08N 37°50' E 015°56'412.8
2017-Nov-04 11:49N 37°51' E 015°51'412.8
2017-Nov-04 11:29N 37°53' E 015°46'813.0
2017-Nov-04 10:53N 37°57' E 015°37'513.2
2017-Nov-04 10:29N 38°02' E 015°34'612.9
2017-Nov-04 10:00N 38°08' E 015°35'714.5
2017-Nov-04 09:29N 38°15' E 015°38'612.2
2017-Nov-04 09:00N 38°21' E 015°39'713.8
2017-Nov-04 08:30N 38°27' E 015°35'713.5
2017-Nov-04 08:00N 38°33' E 015°31'713.4
2017-Nov-04 07:27N 38°40' E 015°27'613.5
2017-Nov-04 07:00N 38°45' E 015°24'4013.7
2017-Nov-04 04:05N 39°19' E 014°57'213.5
2017-Nov-04 03:58N 39°20' E 014°55'8813.9
2017-Nov-03 21:40N 40°33' E 013°52'  

Dump ship's entire track history